createdAt,value
2023-04-28T00:01:38.341Z,100.00
2023-04-28T00:04:05.442Z,100.00
2023-04-28T00:06:34.942Z,100.00
2023-04-28T00:09:01.887Z,100.00
2023-04-28T00:11:28.603Z,100.00
2023-04-28T00:13:55.442Z,98.15
2023-04-28T00:16:22.256Z,100.00
2023-04-28T00:18:49.024Z,100.00
2023-04-28T00:21:15.789Z,100.00
2023-04-28T00:23:42.704Z,100.00
2023-04-28T00:26:09.638Z,100.00
2023-04-28T00:28:36.617Z,100.00
2023-04-28T00:31:03.460Z,100.00
2023-04-28T00:33:30.224Z,100.00
2023-04-28T00:36:01.119Z,100.00
2023-04-28T00:38:28.224Z,100.00
2023-04-28T00:40:55.030Z,100.00
2023-04-28T00:43:21.830Z,100.00
2023-04-28T00:45:52.284Z,100.00
2023-04-28T00:48:19.416Z,100.00
2023-04-28T00:50:46.655Z,100.00
2023-04-28T00:53:13.549Z,100.00
2023-04-28T00:55:40.479Z,100.00
2023-04-28T00:58:07.434Z,100.00
2023-04-28T01:00:34.484Z,100.00
2023-04-28T01:03:01.522Z,100.00
2023-04-28T01:05:29.459Z,100.00
2023-04-28T01:07:56.482Z,100.00
2023-04-28T01:10:23.155Z,100.00
2023-04-28T01:12:49.978Z,100.00
2023-04-28T01:15:18.274Z,100.00
2023-04-28T01:17:45.590Z,100.00
2023-04-28T01:20:12.609Z,100.00
2023-04-28T01:22:41.632Z,100.00
2023-04-28T01:25:08.817Z,100.00
2023-04-28T01:27:35.580Z,100.00
2023-04-28T01:30:02.420Z,100.00
2023-04-28T01:32:29.255Z,100.00
2023-04-28T01:34:56.596Z,100.00
2023-04-28T01:37:23.426Z,100.00
2023-04-28T01:39:50.133Z,100.00
2023-04-28T01:42:16.824Z,100.00
2023-04-28T01:44:43.546Z,100.00
2023-04-28T01:47:10.231Z,100.00
2023-04-28T01:49:36.967Z,100.00
2023-04-28T01:52:03.740Z,100.00
2023-04-28T01:54:30.591Z,100.00
2023-04-28T01:56:57.431Z,100.00
2023-04-28T01:59:24.194Z,100.00
2023-04-28T02:01:51.198Z,100.00
2023-04-28T02:04:18.654Z,100.00
2023-04-28T02:06:45.556Z,100.00
2023-04-28T02:09:12.460Z,100.00
2023-04-28T02:11:39.238Z,100.00
2023-04-28T02:14:05.982Z,100.00
2023-04-28T02:16:34.068Z,100.00
2023-04-28T02:19:01.404Z,100.00
2023-04-28T02:21:28.322Z,100.00
2023-04-28T02:23:55.320Z,100.00
2023-04-28T02:26:23.011Z,100.00
2023-04-28T02:28:49.892Z,100.00
2023-04-28T02:31:17.000Z,100.00
2023-04-28T02:33:43.868Z,100.00
2023-04-28T02:36:11.139Z,100.00
2023-04-28T02:38:37.859Z,100.00
2023-04-28T02:41:05.383Z,100.00
2023-04-28T02:43:32.783Z,100.00
2023-04-28T02:45:59.808Z,100.00
2023-04-28T02:48:26.870Z,100.00
2023-04-28T02:50:54.009Z,100.00
2023-04-28T02:53:21.382Z,100.00
2023-04-28T02:55:48.463Z,100.00
2023-04-28T02:58:15.331Z,100.00
2023-04-28T03:00:42.051Z,100.00
2023-04-28T03:03:08.970Z,100.00
2023-04-28T03:05:36.131Z,100.00
2023-04-28T03:08:02.935Z,100.00
2023-04-28T03:10:29.681Z,100.00
2023-04-28T03:12:56.426Z,100.00
2023-04-28T03:15:23.169Z,100.00
2023-04-28T03:17:50.007Z,100.00
2023-04-28T03:20:16.831Z,100.00
2023-04-28T03:22:43.550Z,100.00
2023-04-28T03:25:10.305Z,100.00
2023-04-28T03:27:37.192Z,100.00
2023-04-28T03:30:04.217Z,100.00
2023-04-28T03:32:31.110Z,100.00
2023-04-28T03:34:57.901Z,100.00
2023-04-28T03:37:24.677Z,100.00
2023-04-28T03:39:51.430Z,100.00
2023-04-28T03:42:18.130Z,100.00
2023-04-28T03:44:44.939Z,100.00
2023-04-28T03:47:11.814Z,100.00
2023-04-28T03:49:38.567Z,100.00
2023-04-28T03:52:05.334Z,100.00
2023-04-28T03:54:32.042Z,100.00
2023-04-28T03:56:59.753Z,100.00
2023-04-28T03:59:27.173Z,100.00
2023-04-28T04:01:53.845Z,100.00
2023-04-28T04:04:21.101Z,100.00
2023-04-28T04:06:48.612Z,100.00
2023-04-28T04:09:15.603Z,100.00
2023-04-28T04:11:42.479Z,100.00
2023-04-28T04:14:09.275Z,100.00
2023-04-28T04:16:36.304Z,100.00
2023-04-28T04:19:03.334Z,100.00
2023-04-28T04:21:30.262Z,100.00
2023-04-28T04:23:56.948Z,100.00
2023-04-28T04:26:23.768Z,100.00
2023-04-28T04:28:50.462Z,100.00
2023-04-28T04:31:18.466Z,100.00
2023-04-28T04:33:45.422Z,100.00
2023-04-28T04:36:12.420Z,100.00
2023-04-28T04:38:39.163Z,100.00
2023-04-28T04:41:05.855Z,100.00
2023-04-28T04:43:32.550Z,100.00
2023-04-28T04:45:59.712Z,100.00
2023-04-28T04:48:26.521Z,100.00
2023-04-28T04:50:53.197Z,100.00
2023-04-28T04:53:20.393Z,100.00
2023-04-28T04:55:47.118Z,99.68
2023-04-28T04:58:14.179Z,90.90
2023-04-28T05:00:41.060Z,83.22
2023-04-28T05:03:09.502Z,78.97
2023-04-28T05:05:36.375Z,78.36
2023-04-28T05:08:03.960Z,75.85
2023-04-28T05:10:30.668Z,72.32
2023-04-28T05:12:57.377Z,70.33
2023-04-28T05:15:24.264Z,66.99
2023-04-28T05:17:51.059Z,67.86
2023-04-28T05:20:17.894Z,64.63
2023-04-28T05:22:44.681Z,63.28
2023-04-28T05:25:11.386Z,63.11
2023-04-28T05:27:39.648Z,61.73
2023-04-28T05:30:10.788Z,61.01
2023-04-28T05:32:38.185Z,62.98
2023-04-28T05:35:05.133Z,60.75
2023-04-28T05:37:31.866Z,59.36
2023-04-28T05:39:58.558Z,57.78
2023-04-28T05:42:25.234Z,56.41
2023-04-28T05:44:51.932Z,53.68
2023-04-28T05:47:18.616Z,52.77
2023-04-28T05:49:45.380Z,54.77
2023-04-28T05:52:12.169Z,64.06
2023-04-28T05:54:39.017Z,67.29
2023-04-28T05:57:05.791Z,57.28
2023-04-28T05:59:33.325Z,49.88
2023-04-28T06:02:00.221Z,49.19
2023-04-28T06:04:27.530Z,46.65
2023-04-28T06:06:54.565Z,46.62
2023-04-28T06:09:21.319Z,45.56
2023-04-28T06:11:48.011Z,46.60
2023-04-28T06:14:14.950Z,46.37
2023-04-28T06:16:41.994Z,47.00
2023-04-28T06:19:08.958Z,43.79
2023-04-28T06:21:36.126Z,41.09
2023-04-28T06:24:02.965Z,41.01
2023-04-28T06:26:29.735Z,41.79
2023-04-28T06:28:56.788Z,39.60
2023-04-28T06:31:23.552Z,38.66
2023-04-28T06:33:50.369Z,38.08
2023-04-28T06:36:18.318Z,38.06
2023-04-28T06:38:46.144Z,39.53
2023-04-28T06:41:12.996Z,40.54
2023-04-28T06:43:39.883Z,41.45
2023-04-28T06:46:06.680Z,39.96
2023-04-28T06:48:33.571Z,38.22
2023-04-28T06:51:00.443Z,36.38
2023-04-28T06:53:27.515Z,36.45
2023-04-28T06:55:54.253Z,35.74
2023-04-28T06:58:21.194Z,34.89
2023-04-28T07:00:48.050Z,35.51
2023-04-28T07:03:14.892Z,34.86
2023-04-28T07:05:41.756Z,34.16
2023-04-28T07:08:08.614Z,32.61
2023-04-28T07:10:35.390Z,32.46
2023-04-28T07:13:02.053Z,31.68
2023-04-28T07:15:29.355Z,32.23
2023-04-28T07:17:56.448Z,31.33
2023-04-28T07:20:23.369Z,30.31
2023-04-28T07:22:50.123Z,30.66
2023-04-28T07:25:16.929Z,30.32
2023-04-28T07:27:43.820Z,30.23
2023-04-28T07:30:25.940Z,31.73
2023-04-28T07:32:54.527Z,32.02
2023-04-28T07:35:21.574Z,32.29
2023-04-28T07:37:48.506Z,33.31
2023-04-28T07:40:15.992Z,31.44
2023-04-28T07:42:43.014Z,30.30
2023-04-28T07:45:09.894Z,30.13
2023-04-28T07:47:36.853Z,30.36
2023-04-28T07:50:05.323Z,30.30
2023-04-28T07:52:32.698Z,29.91
2023-04-28T07:54:59.799Z,30.47
2023-04-28T07:57:26.821Z,29.89
2023-04-28T07:59:53.745Z,29.60
2023-04-28T08:02:21.217Z,30.36
2023-04-28T08:04:48.132Z,30.73
2023-04-28T08:07:15.301Z,29.71
2023-04-28T08:09:44.610Z,29.57
2023-04-28T08:12:11.413Z,29.05
2023-04-28T08:14:38.132Z,28.91
2023-04-28T08:17:04.856Z,28.72
2023-04-28T08:19:31.644Z,27.81
2023-04-28T08:22:00.175Z,28.72
2023-04-28T08:24:30.518Z,28.44
2023-04-28T08:26:57.289Z,27.59
2023-04-28T08:29:24.298Z,27.91
2023-04-28T08:31:51.723Z,28.14
2023-04-28T08:34:19.085Z,28.64
2023-04-28T08:36:46.157Z,27.85
2023-04-28T08:39:13.632Z,27.52
2023-04-28T08:41:41.537Z,27.56
2023-04-28T08:44:11.945Z,27.50
2023-04-28T08:46:44.986Z,28.22
2023-04-28T08:49:16.617Z,27.93
2023-04-28T08:51:48.146Z,28.33
2023-04-28T08:54:26.040Z,27.92
2023-04-28T08:56:54.675Z,27.93
2023-04-28T08:59:22.206Z,27.93
2023-04-28T09:01:50.123Z,28.33
2023-04-28T09:04:21.280Z,27.70
2023-04-28T09:06:49.092Z,29.46
2023-04-28T09:09:21.548Z,29.99
2023-04-28T09:12:06.208Z,30.38
2023-04-28T09:14:34.846Z,30.38
2023-04-28T09:17:09.996Z,29.97
2023-04-28T09:19:37.560Z,30.95
2023-04-28T09:22:17.653Z,30.98
2023-04-28T09:24:44.967Z,29.87
2023-04-28T09:27:12.218Z,29.95
2023-04-28T09:29:39.565Z,29.62
2023-04-28T09:32:16.364Z,30.10
2023-04-28T09:34:45.896Z,29.21
2023-04-28T09:37:17.265Z,29.93
2023-04-28T09:39:45.126Z,30.27
2023-04-28T09:42:30.900Z,30.60
2023-04-28T09:44:58.063Z,30.52
2023-04-28T09:47:25.847Z,30.50
2023-04-28T09:49:56.393Z,31.51
2023-04-28T09:52:24.444Z,31.20
2023-04-28T09:54:52.469Z,30.89
2023-04-28T09:57:19.492Z,31.63
2023-04-28T09:59:50.616Z,30.10
2023-04-28T10:02:42.185Z,31.09
2023-04-28T10:05:05.861Z,30.48
2023-04-28T10:07:35.923Z,30.94
2023-04-28T10:10:04.515Z,31.38
2023-04-28T10:12:32.953Z,31.09
2023-04-28T10:15:00.296Z,31.67
2023-04-28T10:17:29.707Z,31.87
2023-04-28T10:19:57.450Z,32.29
2023-04-28T10:22:42.464Z,32.10
2023-04-28T10:25:12.345Z,33.06
2023-04-28T10:27:40.782Z,32.30
2023-04-28T10:30:26.632Z,31.75
2023-04-28T10:33:13.772Z,31.87
2023-04-28T10:35:43.209Z,32.27
2023-04-28T10:38:10.074Z,32.65
2023-04-28T10:40:40.139Z,32.25
2023-04-28T10:43:33.047Z,31.74
2023-04-28T10:46:04.198Z,32.42
2023-04-28T10:48:34.405Z,32.36
2023-04-28T10:51:04.366Z,31.88
2023-04-28T10:53:43.657Z,32.75
2023-04-28T10:56:10.401Z,32.59
2023-04-28T10:58:42.079Z,31.79
2023-04-28T11:01:27.804Z,32.13
2023-04-28T11:04:11.075Z,32.28
2023-04-28T11:06:46.146Z,32.62
2023-04-28T11:09:12.905Z,33.03
2023-04-28T11:11:40.364Z,32.04
2023-04-28T11:14:19.350Z,32.33
2023-04-28T11:17:03.294Z,32.55
2023-04-28T11:19:37.913Z,32.29
2023-04-28T11:22:10.060Z,31.99
2023-04-28T11:24:36.961Z,32.09
2023-04-28T11:27:04.402Z,32.51
2023-04-28T11:29:35.522Z,31.77
2023-04-28T11:32:03.185Z,32.07
2023-04-28T11:34:30.066Z,32.16
2023-04-28T11:36:56.943Z,32.21
2023-04-28T11:39:33.414Z,32.20
2023-04-28T11:42:01.069Z,32.05
2023-04-28T11:44:30.361Z,33.20
2023-04-28T11:47:01.172Z,32.46
2023-04-28T11:49:47.167Z,32.52
2023-04-28T11:52:14.067Z,32.49
2023-04-28T11:54:43.796Z,33.14
2023-04-28T11:57:21.681Z,32.79
2023-04-28T11:59:49.947Z,32.82
2023-04-28T12:02:24.758Z,33.07
2023-04-28T12:04:52.433Z,33.40
2023-04-28T12:07:20.127Z,33.39
2023-04-28T12:09:48.633Z,33.31
2023-04-28T12:15:07.332Z,33.46
2023-04-28T12:17:35.398Z,33.63
2023-04-28T12:20:03.984Z,33.26
2023-04-28T12:22:33.560Z,33.34
2023-04-28T12:25:19.668Z,33.28
2023-04-28T12:28:07.829Z,32.76
2023-04-28T12:30:36.401Z,33.54
2023-04-28T12:33:03.220Z,32.73
2023-04-28T12:35:30.533Z,33.13
2023-04-28T12:37:59.095Z,34.01
2023-04-28T12:40:26.544Z,33.51
2023-04-28T12:42:54.090Z,32.65
2023-04-28T12:45:20.884Z,32.73
2023-04-28T12:47:48.614Z,33.60
2023-04-28T12:50:15.642Z,33.58
2023-04-28T12:52:42.371Z,33.27
2023-04-28T12:55:09.499Z,33.90
2023-04-28T12:57:39.091Z,34.24
2023-04-28T13:00:06.913Z,34.12
2023-04-28T13:02:34.031Z,33.30
2023-04-28T13:05:02.151Z,33.49
2023-04-28T13:07:30.628Z,33.44
2023-04-28T13:09:57.585Z,34.13
2023-04-28T13:12:24.454Z,34.27
2023-04-28T13:14:51.387Z,33.62
2023-04-28T13:17:18.164Z,33.66
2023-04-28T13:19:45.327Z,34.50
2023-04-28T13:22:12.633Z,34.56
2023-04-28T13:24:39.617Z,33.97
2023-04-28T13:27:10.243Z,33.92
2023-04-28T13:29:37.831Z,33.81
2023-04-28T13:32:07.995Z,34.46
2023-04-28T13:34:34.764Z,34.49
2023-04-28T13:37:01.611Z,34.25
2023-04-28T13:39:28.620Z,34.33
2023-04-28T13:41:55.518Z,34.80
2023-04-28T13:44:22.436Z,34.75
2023-04-28T13:46:50.097Z,34.82
2023-04-28T13:49:17.173Z,35.27
2023-04-28T13:51:45.814Z,35.47
2023-04-28T13:54:12.990Z,35.53
2023-04-28T13:56:39.777Z,35.45
2023-04-28T13:59:06.797Z,35.50
2023-04-28T14:01:33.703Z,35.47
2023-04-28T14:04:01.446Z,35.43
2023-04-28T14:06:29.261Z,35.42
2023-04-28T14:08:56.035Z,35.26
2023-04-28T14:11:22.902Z,36.06
2023-04-28T14:13:49.733Z,35.97
2023-04-28T14:16:16.683Z,36.02
2023-04-28T14:18:43.507Z,36.58
2023-04-28T14:21:10.373Z,36.63
2023-04-28T14:23:37.079Z,36.50
2023-04-28T14:26:03.972Z,37.86
2023-04-28T14:28:31.027Z,36.63
2023-04-28T14:30:58.071Z,37.16
2023-04-28T14:33:24.846Z,37.13
2023-04-28T14:35:51.653Z,36.84
2023-04-28T14:38:18.809Z,37.83
2023-04-28T14:40:45.542Z,37.87
2023-04-28T14:43:12.320Z,37.19
2023-04-28T14:45:39.158Z,37.41
2023-04-28T14:48:07.924Z,37.63
2023-04-28T14:50:34.855Z,37.83
2023-04-28T14:53:05.778Z,37.75
2023-04-28T14:55:33.593Z,38.46
2023-04-28T14:58:00.408Z,38.25
2023-04-28T15:00:27.270Z,39.37
2023-04-28T15:02:54.539Z,37.47
2023-04-28T15:05:21.367Z,37.86
2023-04-28T15:07:48.298Z,37.78
2023-04-28T15:10:15.669Z,38.47
2023-04-28T15:12:45.597Z,38.68
2023-04-28T15:15:13.218Z,38.04
2023-04-28T15:17:40.362Z,38.29
2023-04-28T15:20:08.235Z,38.30
2023-04-28T15:22:36.609Z,38.06
2023-04-28T15:25:03.650Z,38.36
2023-04-28T15:27:30.805Z,38.75
2023-04-28T15:29:57.761Z,38.75
2023-04-28T15:32:24.815Z,38.99
2023-04-28T15:34:52.010Z,39.17
2023-04-28T15:37:55.808Z,38.89
2023-04-28T15:40:22.519Z,39.72
2023-04-28T15:42:49.625Z,39.41
2023-04-28T15:45:17.329Z,39.67
2023-04-28T15:47:45.404Z,39.84
2023-04-28T15:50:14.304Z,39.55
2023-04-28T15:52:46.258Z,41.13
2023-04-28T15:55:16.853Z,40.18
2023-04-28T15:57:44.759Z,40.71
2023-04-28T16:00:11.797Z,40.65
2023-04-28T16:02:39.510Z,40.83
2023-04-28T16:05:06.698Z,40.77
2023-04-28T16:07:39.172Z,40.87
2023-04-28T16:10:08.325Z,40.96
2023-04-28T16:12:35.781Z,40.94
2023-04-28T16:15:03.357Z,41.03
2023-04-28T16:17:30.422Z,41.38
2023-04-28T16:19:57.155Z,41.81
2023-04-28T16:22:24.299Z,41.59
2023-04-28T16:24:51.865Z,42.31
2023-04-28T16:27:18.782Z,42.60
2023-04-28T16:29:46.172Z,42.75
2023-04-28T16:32:13.148Z,43.57
2023-04-28T16:34:40.077Z,43.05
2023-04-28T16:37:07.557Z,44.18
2023-04-28T16:39:34.323Z,44.10
2023-04-28T16:42:01.577Z,43.93
2023-04-28T16:44:28.778Z,44.64
2023-04-28T16:46:57.737Z,46.51
2023-04-28T16:49:24.940Z,45.54
2023-04-28T16:51:58.044Z,46.65
2023-04-28T16:54:25.869Z,47.87
2023-04-28T16:56:52.575Z,47.34
2023-04-28T16:59:19.369Z,47.73
2023-04-28T17:01:46.176Z,47.37
2023-04-28T17:04:14.070Z,47.97
2023-04-28T17:06:41.091Z,47.18
2023-04-28T17:09:08.441Z,49.21
2023-04-28T17:11:37.912Z,47.48
2023-04-28T17:14:04.939Z,47.91
2023-04-28T17:16:32.963Z,48.65
2023-04-28T17:19:00.541Z,48.23
2023-04-28T17:21:28.969Z,49.07
2023-04-28T17:23:57.781Z,48.53
2023-04-28T17:26:25.571Z,49.94
2023-04-28T17:28:53.692Z,48.87
2023-04-28T17:31:20.529Z,50.35
2023-04-28T17:33:47.461Z,48.98
2023-04-28T17:36:14.163Z,50.13
2023-04-28T17:38:41.114Z,50.00
2023-04-28T17:41:07.903Z,49.72
2023-04-28T17:43:35.662Z,50.05
2023-04-28T17:46:02.998Z,51.57
2023-04-28T17:48:29.851Z,51.34
2023-04-28T17:50:56.922Z,51.92
2023-04-28T17:53:23.651Z,52.94
2023-04-28T17:55:50.533Z,53.67
2023-04-28T17:58:17.331Z,54.24
2023-04-28T18:00:44.260Z,55.88
2023-04-28T18:03:11.046Z,56.74
2023-04-28T18:05:38.152Z,56.45
2023-04-28T18:08:04.974Z,57.36
2023-04-28T18:10:32.461Z,57.95
2023-04-28T18:12:59.581Z,59.65
2023-04-28T18:15:26.865Z,60.19
2023-04-28T18:17:53.951Z,61.16
2023-04-28T18:20:20.719Z,60.92
2023-04-28T18:22:47.511Z,61.32
2023-04-28T18:25:17.136Z,61.64
2023-04-28T18:27:44.055Z,62.35
2023-04-28T18:30:11.420Z,63.12
2023-04-28T18:32:38.254Z,62.09
2023-04-28T18:35:05.188Z,63.30
2023-04-28T18:37:32.021Z,64.09
2023-04-28T18:39:59.047Z,63.88
2023-04-28T18:42:27.601Z,64.06
2023-04-28T18:44:55.738Z,64.15
2023-04-28T18:47:25.824Z,64.48
2023-04-28T18:49:58.263Z,66.08
2023-04-28T18:52:27.711Z,66.46
2023-04-28T18:54:54.569Z,65.87
2023-04-28T18:57:21.453Z,66.51
2023-04-28T18:59:49.587Z,67.17
2023-04-28T19:02:16.805Z,67.09
2023-04-28T19:04:45.091Z,68.60
2023-04-28T19:07:12.158Z,68.01
2023-04-28T19:09:39.154Z,67.88
2023-04-28T19:12:06.109Z,68.49
2023-04-28T19:14:33.508Z,68.47
2023-04-28T19:17:00.325Z,69.28
2023-04-28T19:19:29.091Z,69.03
2023-04-28T19:21:58.018Z,68.70
2023-04-28T19:24:24.863Z,69.40
2023-04-28T19:26:52.986Z,69.22
2023-04-28T19:29:20.284Z,69.99
2023-04-28T19:31:49.149Z,70.28
2023-04-28T19:34:16.001Z,70.48
2023-04-28T19:36:42.736Z,69.98
2023-04-28T19:39:09.567Z,69.86
2023-04-28T19:41:40.967Z,70.07
2023-04-28T19:44:07.730Z,70.19
2023-04-28T19:46:34.690Z,70.65
2023-04-28T19:49:01.617Z,70.79
2023-04-28T19:51:28.321Z,71.80
2023-04-28T19:53:55.453Z,71.43
2023-04-28T19:56:22.366Z,71.74
2023-04-28T19:58:49.177Z,71.47
2023-04-28T20:01:15.991Z,72.00
2023-04-28T20:03:43.260Z,71.86
2023-04-28T20:06:18.355Z,72.79
2023-04-28T20:08:45.957Z,74.59
2023-04-28T20:11:15.024Z,74.21
2023-04-28T20:13:41.885Z,74.76
2023-04-28T20:16:08.758Z,74.95
2023-04-28T20:18:35.835Z,75.41
2023-04-28T20:21:05.507Z,77.12
2023-04-28T20:23:34.277Z,76.72
2023-04-28T20:26:00.996Z,76.42
2023-04-28T20:28:27.771Z,75.70
2023-04-28T20:30:54.527Z,76.12
2023-04-28T20:33:24.320Z,76.65
2023-04-28T20:35:51.208Z,74.98
2023-04-28T20:38:19.936Z,74.31
2023-04-28T20:40:46.686Z,73.63
2023-04-28T20:43:13.490Z,73.83
2023-04-28T20:45:42.092Z,73.50
2023-04-28T20:48:11.058Z,73.91
2023-04-28T20:50:38.734Z,73.51
2023-04-28T20:53:05.642Z,73.71
2023-04-28T20:55:32.723Z,74.05
2023-04-28T20:57:59.673Z,74.56
2023-04-28T21:00:26.686Z,73.93
2023-04-28T21:02:53.584Z,74.67
2023-04-28T21:05:21.010Z,74.06
2023-04-28T21:07:47.939Z,74.15
2023-04-28T21:10:14.758Z,75.18
2023-04-28T21:12:41.644Z,75.27
2023-04-28T21:15:08.572Z,75.84
2023-04-28T21:17:35.338Z,76.11
2023-04-28T21:20:02.125Z,76.40
2023-04-28T21:22:30.209Z,77.10
2023-04-28T21:24:57.543Z,77.50
2023-04-28T21:27:24.532Z,78.04
2023-04-28T21:29:51.770Z,78.00
2023-04-28T21:32:18.885Z,78.06
2023-04-28T21:34:49.641Z,78.09
2023-04-28T21:37:18.127Z,78.23
2023-04-28T21:39:44.940Z,78.00
2023-04-28T21:42:13.978Z,78.37
2023-04-28T21:44:48.116Z,79.19
2023-04-28T21:47:18.199Z,79.18
2023-04-28T21:49:44.995Z,79.69
2023-04-28T21:52:13.554Z,79.05
2023-04-28T21:54:40.541Z,79.23
2023-04-28T21:57:07.426Z,79.03
2023-04-28T21:59:34.365Z,79.71
2023-04-28T22:02:02.032Z,80.14
2023-04-28T22:04:29.197Z,78.90
2023-04-28T22:06:58.408Z,79.76
2023-04-28T22:09:26.443Z,79.42
2023-04-28T22:11:53.405Z,78.94
2023-04-28T22:14:38.663Z,79.06
2023-04-28T22:17:09.868Z,80.27
2023-04-28T22:19:40.102Z,78.98
2023-04-28T22:22:07.340Z,78.41
2023-04-28T22:24:34.066Z,79.18
2023-04-28T22:27:01.086Z,78.90
2023-04-28T22:29:28.777Z,78.35
2023-04-28T22:31:55.670Z,78.53
2023-04-28T22:34:23.098Z,79.02
2023-04-28T22:36:53.434Z,78.60
2023-04-28T22:39:21.484Z,78.24
2023-04-28T22:41:48.328Z,78.79
2023-04-28T22:44:15.077Z,78.33
2023-04-28T22:46:46.962Z,77.81
2023-04-28T22:49:13.717Z,77.10
2023-04-28T22:51:40.400Z,77.55
2023-04-28T22:54:07.097Z,77.39
2023-04-28T22:56:33.916Z,77.79
2023-04-28T22:59:03.383Z,77.44
2023-04-28T23:01:30.913Z,77.64
2023-04-28T23:04:00.767Z,76.48
2023-04-28T23:06:29.041Z,76.10
2023-04-28T23:08:56.178Z,76.31
2023-04-28T23:11:24.349Z,75.89
2023-04-28T23:13:51.484Z,75.40
2023-04-28T23:16:20.334Z,76.01
2023-04-28T23:18:47.122Z,75.41
2023-04-28T23:21:14.051Z,76.05
2023-04-28T23:23:41.144Z,76.01
2023-04-28T23:26:13.304Z,75.83
2023-04-28T23:28:40.295Z,75.56
2023-04-28T23:31:07.256Z,75.78
2023-04-28T23:33:38.058Z,75.47
2023-04-28T23:36:08.195Z,75.67
2023-04-28T23:38:38.947Z,75.61
2023-04-28T23:41:09.861Z,76.48
2023-04-28T23:43:37.097Z,76.54
2023-04-28T23:46:03.992Z,75.93
2023-04-28T23:48:30.854Z,76.33
2023-04-28T23:50:57.757Z,76.32
2023-04-28T23:53:26.222Z,76.10
2023-04-28T23:55:55.872Z,76.22
2023-04-28T23:58:22.905Z,76.95
